Time;durP1;ratioP1;P1;durP2;ratioP2;P2;SDS_P1;SDS_P2;PMS_P1;PMS_P2;Temp;Humidity;BMP_temperature;BMP_pressure;BME280_temperature;BME280_humidity;BME280_pressure;Samples;Min_cycle;Max_cycle;Signal;HPM_P1;HPM_P2
2023/03/15 00:00:17;;;;;;;7.75;1.65;;;;;;;;;;4977425;28;20114;-70
2023/03/15 00:03:03;;;;;;;8.15;2.63;;;;;;;;;;4990386;28;20022;-70
2023/03/15 00:05:48;;;;;;;2.53;1.63;;;;;;;;;;4969253;28;21668;-69
2023/03/15 00:08:34;;;;;;;5.13;2.42;;;;;;;;;;4994417;28;21232;-70
2023/03/15 00:11:19;;;;;;;3.60;1.83;;;;;;;;;;4982778;28;20038;-73
2023/03/15 00:14:05;;;;;;;8.52;2.15;;;;;;;;;;4990637;28;20022;-65
2023/03/15 00:16:50;;;;;;;3.05;2.00;;;;;;;;;;4991742;28;20127;-67
2023/03/15 00:19:35;;;;;;;5.75;2.63;;;;;;;;;;4974480;28;20049;-67
2023/03/15 00:22:22;;;;;;;2.97;2.08;;;;;;;;;;4977009;28;20022;-68
2023/03/15 00:25:07;;;;;;;6.22;2.13;;;;;;;;;;4985671;28;20087;-66
2023/03/15 00:27:52;;;;;;;4.82;2.15;;;;;;;;;;4988204;28;20026;-68
2023/03/15 00:30:38;;;;;;;4.55;2.10;;;;;;;;;;4984717;28;20045;-67
2023/03/15 00:33:23;;;;;;;3.85;2.22;;;;;;;;;;4983867;28;20033;-66
2023/03/15 00:36:09;;;;;;;6.97;2.38;;;;;;;;;;4987782;28;20038;-70
2023/03/15 00:38:55;;;;;;;10.30;2.83;;;;;;;;;;4984942;28;20033;-71
2023/03/15 00:41:40;;;;;;;6.43;2.55;;;;;;;;;;4993663;28;20726;-70
2023/03/15 00:44:26;;;;;;;6.93;2.58;;;;;;;;;;4987082;28;20041;-69
2023/03/15 00:47:12;;;;;;;3.88;2.72;;;;;;;;;;4982999;28;20045;-69
2023/03/15 00:49:57;;;;;;;4.57;2.83;;;;;;;;;;4988851;28;20606;-71
2023/03/15 00:52:43;;;;;;;3.60;2.25;;;;;;;;;;4987437;28;20042;-66
2023/03/15 00:55:28;;;;;;;4.50;2.38;;;;;;;;;;4980899;28;20081;-69
2023/03/15 00:58:13;;;;;;;6.82;2.50;;;;;;;;;;4991487;28;20042;-68
2023/03/15 01:01:00;;;;;;;4.97;2.72;;;;;;;;;;4983842;28;20041;-67
2023/03/15 01:03:45;;;;;;;4.60;2.70;;;;;;;;;;4990376;28;20037;-66
2023/03/15 01:06:30;;;;;;;7.28;2.28;;;;;;;;;;4991266;28;20033;-65
2023/03/15 01:09:15;;;;;;;5.47;2.05;;;;;;;;;;4988904;28;20053;-71
2023/03/15 01:12:01;;;;;;;8.60;2.08;;;;;;;;;;4977699;28;20022;-67
2023/03/15 01:14:46;;;;;;;7.03;2.55;;;;;;;;;;4983291;28;20393;-67
2023/03/15 01:17:31;;;;;;;5.90;1.90;;;;;;;;;;4989181;28;20184;-66
2023/03/15 01:20:16;;;;;;;6.90;2.42;;;;;;;;;;4985434;28;20068;-66
2023/03/15 01:23:01;;;;;;;12.10;2.67;;;;;;;;;;4978258;28;20034;-67
2023/03/15 01:25:47;;;;;;;5.25;3.20;;;;;;;;;;4984385;28;20648;-67
2023/03/15 01:28:33;;;;;;;8.77;2.70;;;;;;;;;;4987397;28;20761;-75
2023/03/15 01:31:19;;;;;;;7.72;2.03;;;;;;;;;;4989141;28;20370;-70
2023/03/15 01:34:05;;;;;;;4.57;2.15;;;;;;;;;;4980135;28;20037;-67
2023/03/15 01:36:53;;;;;;;6.25;2.05;;;;;;;;;;4989125;28;20030;-68
2023/03/15 01:39:39;;;;;;;6.95;2.40;;;;;;;;;;4999250;28;20038;-68
2023/03/15 01:42:24;;;;;;;9.00;2.20;;;;;;;;;;4994390;28;20164;-67
2023/03/15 01:45:42;;;;;;;6.53;2.67;;;;;;;;;;4984144;28;20706;-76
2023/03/15 01:48:45;;;;;;;4.63;2.47;;;;;;;;;;4964210;28;20078;-70
2023/03/15 01:51:30;;;;;;;4.20;1.92;;;;;;;;;;4992253;28;20042;-67
2023/03/15 01:54:21;;;;;;;7.78;2.83;;;;;;;;;;4989166;28;20042;-68
2023/03/15 01:57:06;;;;;;;4.03;1.83;;;;;;;;;;4995155;28;20109;-69
2023/03/15 01:59:55;;;;;;;7.50;2.35;;;;;;;;;;4989436;28;20120;-68
2023/03/15 02:02:45;;;;;;;5.75;2.00;;;;;;;;;;4994910;28;20034;-68
2023/03/15 02:05:32;;;;;;;6.68;3.13;;;;;;;;;;4986734;28;20128;-70
2023/03/15 02:08:17;;;;;;;5.43;1.65;;;;;;;;;;4991533;28;20168;-67
2023/03/15 02:11:04;;;;;;;5.28;1.70;;;;;;;;;;4999505;28;20450;-69
2023/03/15 02:13:50;;;;;;;7.50;2.13;;;;;;;;;;4987853;28;20048;-65
2023/03/15 02:16:36;;;;;;;3.17;1.48;;;;;;;;;;4990534;28;20381;-66
2023/03/15 02:19:32;;;;;;;5.25;1.92;;;;;;;;;;4989590;28;20385;-67
2023/03/15 02:22:23;;;;;;;4.18;1.80;;;;;;;;;;4986548;28;20041;-67
2023/03/15 02:25:12;;;;;;;5.55;2.47;;;;;;;;;;4969526;28;20041;-70
2023/03/15 02:27:58;;;;;;;4.90;1.55;;;;;;;;;;5008449;28;20040;-71
2023/03/15 02:30:43;;;;;;;3.22;1.33;;;;;;;;;;4991133;28;20048;-71
2023/03/15 02:33:31;;;;;;;4.68;1.50;;;;;;;;;;4985116;28;20037;-70
2023/03/15 02:36:24;;;;;;;3.03;1.70;;;;;;;;;;4985059;28;20034;-68
2023/03/15 02:39:14;;;;;;;3.72;1.65;;;;;;;;;;4993305;28;20032;-71
2023/03/15 02:42:00;;;;;;;;;;;;;;;;;;4999335;28;20711;-72
2023/03/15 02:44:47;;;;;;;4.43;1.50;;;;;;;;;;4993428;28;19928;-66
2023/03/15 02:47:32;;;;;;;5.93;1.85;;;;;;;;;;4996975;28;20026;-66
2023/03/15 02:50:18;;;;;;;2.92;1.50;;;;;;;;;;4980965;28;20027;-66
2023/03/15 02:53:03;;;;;;;6.00;1.52;;;;;;;;;;4993667;28;20058;-66
2023/03/15 02:55:48;;;;;;;4.35;1.88;;;;;;;;;;4985551;28;20517;-66
2023/03/15 02:58:33;;;;;;;8.32;1.55;;;;;;;;;;4991969;28;20064;-65
2023/03/15 03:01:19;;;;;;;4.53;1.52;;;;;;;;;;4991639;28;20536;-67
2023/03/15 03:04:04;;;;;;;3.45;1.73;;;;;;;;;;4983747;28;20037;-69
2023/03/15 03:06:49;;;;;;;6.25;1.50;;;;;;;;;;4988747;28;20026;-68
2023/03/15 03:09:34;;;;;;;4.65;1.65;;;;;;;;;;4991664;28;20069;-68
2023/03/15 03:12:20;;;;;;;3.45;1.40;;;;;;;;;;4982948;28;20072;-68
2023/03/15 03:15:06;;;;;;;2.13;0.90;;;;;;;;;;4998060;28;20087;-65
2023/03/15 03:17:53;;;;;;;7.32;2.50;;;;;;;;;;5003285;28;20381;-79
2023/03/15 03:20:38;;;;;;;8.45;1.27;;;;;;;;;;4989855;28;20083;-76
2023/03/15 03:23:24;;;;;;;6.55;1.48;;;;;;;;;;4987717;28;20065;-76
2023/03/15 03:26:15;;;;;;;3.30;1.40;;;;;;;;;;4992784;28;20388;-75
2023/03/15 03:29:00;;;;;;;4.57;1.20;;;;;;;;;;4992671;28;20061;-79
2023/03/15 03:31:45;;;;;;;5.93;1.45;;;;;;;;;;4984054;28;20048;-76
2023/03/15 03:34:31;;;;;;;3.10;1.15;;;;;;;;;;4986701;28;20511;-77
2023/03/15 03:37:17;;;;;;;6.88;1.75;;;;;;;;;;4986458;28;20053;-76
2023/03/15 03:40:05;;;;;;;4.75;1.52;;;;;;;;;;4991275;28;20044;-78
2023/03/15 03:42:50;;;;;;;5.65;1.50;;;;;;;;;;4992810;28;20500;-76
2023/03/15 03:45:36;;;;;;;5.05;2.60;;;;;;;;;;4988865;28;20222;-76
2023/03/15 03:48:21;;;;;;;1.70;1.20;;;;;;;;;;4997168;28;20036;-78
2023/03/15 03:51:06;;;;;;;2.45;1.20;;;;;;;;;;4982450;28;20033;-76
2023/03/15 03:53:51;;;;;;;4.53;1.50;;;;;;;;;;4981355;28;20544;-70
2023/03/15 03:56:38;;;;;;;4.20;1.55;;;;;;;;;;4989655;28;20038;-72
2023/03/15 03:59:23;;;;;;;7.32;1.70;;;;;;;;;;4990502;28;20354;-66
2023/03/15 04:02:08;;;;;;;2.17;1.10;;;;;;;;;;4993115;28;20038;-66
2023/03/15 04:04:53;;;;;;;7.47;1.55;;;;;;;;;;4993866;28;20049;-67
2023/03/15 04:07:38;;;;;;;3.47;1.40;;;;;;;;;;4980719;28;20537;-66
2023/03/15 04:10:25;;;;;;;4.82;1.40;;;;;;;;;;4990776;28;20048;-67
2023/03/15 04:13:10;;;;;;;4.15;2.03;;;;;;;;;;4983914;28;20022;-78
2023/03/15 04:15:56;;;;;;;7.00;2.00;;;;;;;;;;4988693;28;20084;-66
2023/03/15 04:18:41;;;;;;;5.28;1.40;;;;;;;;;;4979165;28;20658;-69
2023/03/15 04:21:30;;;;;;;6.38;1.60;;;;;;;;;;4992318;28;20412;-68
2023/03/15 04:24:15;;;;;;;3.83;2.05;;;;;;;;;;4974444;28;21480;-66
2023/03/15 04:27:01;;;;;;;6.22;2.35;;;;;;;;;;4992421;28;20048;-65
2023/03/15 04:29:46;;;;;;;4.35;1.80;;;;;;;;;;4985909;28;20037;-66
2023/03/15 04:32:32;;;;;;;5.30;1.52;;;;;;;;;;4981795;28;20046;-76
2023/03/15 04:35:17;;;;;;;7.03;1.60;;;;;;;;;;4986149;28;20117;-70
2023/03/15 04:38:03;;;;;;;3.65;2.03;;;;;;;;;;4992564;28;20198;-71
2023/03/15 04:40:48;;;;;;;4.47;1.58;;;;;;;;;;4992624;28;20050;-70
2023/03/15 04:43:34;;;;;;;7.45;1.70;;;;;;;;;;4986713;28;20043;-71
2023/03/15 04:46:19;;;;;;;3.92;1.83;;;;;;;;;;4993971;28;20034;-71
2023/03/15 04:49:04;;;;;;;10.75;1.73;;;;;;;;;;4987589;28;20041;-69
2023/03/15 04:51:50;;;;;;;4.57;1.77;;;;;;;;;;4989807;28;20143;-67
2023/03/15 04:54:35;;;;;;;6.55;2.50;;;;;;;;;;4986848;28;20121;-69
2023/03/15 04:57:20;;;;;;;8.02;2.15;;;;;;;;;;4986910;28;20114;-67
2023/03/15 05:00:06;;;;;;;5.60;1.83;;;;;;;;;;4987515;28;20030;-65
2023/03/15 05:02:53;;;;;;;7.93;1.80;;;;;;;;;;4982470;28;20437;-68
2023/03/15 05:05:38;;;;;;;8.48;2.58;;;;;;;;;;4981703;28;20049;-66
2023/03/15 05:08:24;;;;;;;7.10;2.20;;;;;;;;;;4992184;28;20030;-72
2023/03/15 05:11:09;;;;;;;4.93;2.03;;;;;;;;;;4994226;28;20377;-70
2023/03/15 05:13:56;;;;;;;7.18;2.30;;;;;;;;;;4981022;28;20125;-70
2023/03/15 05:16:42;;;;;;;7.28;1.98;;;;;;;;;;4988172;28;20355;-71
2023/03/15 05:19:27;;;;;;;6.63;2.50;;;;;;;;;;4992365;28;20034;-70
2023/03/15 05:22:13;;;;;;;7.45;1.90;;;;;;;;;;4990943;28;20243;-71
2023/03/15 05:24:58;;;;;;;5.30;2.80;;;;;;;;;;4996832;28;20749;-71
2023/03/15 05:27:45;;;;;;;8.02;2.22;;;;;;;;;;4980474;28;20241;-66
2023/03/15 05:30:30;;;;;;;2.95;1.75;;;;;;;;;;4990833;28;20041;-67
2023/03/15 05:33:16;;;;;;;6.68;2.70;;;;;;;;;;4990749;28;20449;-66
2023/03/15 05:36:02;;;;;;;5.60;2.72;;;;;;;;;;4990309;28;20451;-67
2023/03/15 05:38:47;;;;;;;3.50;1.92;;;;;;;;;;4986699;28;20353;-67
2023/03/15 05:41:32;;;;;;;10.85;3.00;;;;;;;;;;4988913;28;20087;-67
2023/03/15 05:44:18;;;;;;;5.13;2.08;;;;;;;;;;4989338;28;20030;-69
2023/03/15 05:47:03;;;;;;;5.90;2.05;;;;;;;;;;4998644;28;20040;-78
2023/03/15 05:49:48;;;;;;;4.13;1.75;;;;;;;;;;4990457;28;20033;-70
2023/03/15 05:52:33;;;;;;;4.43;2.47;;;;;;;;;;4980173;28;20034;-69
2023/03/15 05:55:19;;;;;;;5.50;2.10;;;;;;;;;;4984069;28;20022;-68
2023/03/15 05:58:04;;;;;;;5.68;3.15;;;;;;;;;;4981837;28;20072;-68
2023/03/15 06:00:49;;;;;;;7.35;2.80;;;;;;;;;;4992277;28;20054;-68
2023/03/15 06:03:35;;;;;;;8.68;3.00;;;;;;;;;;4989141;28;20081;-76
2023/03/15 06:06:20;;;;;;;8.93;3.28;;;;;;;;;;5001881;28;20545;-71
2023/03/15 06:09:05;;;;;;;7.40;3.03;;;;;;;;;;4989290;28;20118;-70
2023/03/15 06:11:51;;;;;;;9.88;2.10;;;;;;;;;;4989275;28;20213;-72
2023/03/15 06:14:36;;;;;;;7.28;2.03;;;;;;;;;;4986366;28;20065;-69
2023/03/15 06:17:21;;;;;;;7.85;2.92;;;;;;;;;;4992105;28;20092;-68
2023/03/15 06:20:07;;;;;;;10.20;2.50;;;;;;;;;;4990422;28;20065;-70
2023/03/15 06:22:52;;;;;;;6.65;2.55;;;;;;;;;;4990427;28;20064;-77
2023/03/15 06:25:37;;;;;;;8.68;2.53;;;;;;;;;;4996388;28;20053;-68
2023/03/15 06:28:22;;;;;;;4.00;2.20;;;;;;;;;;4998844;28;20033;-69
2023/03/15 06:31:09;;;;;;;11.60;2.85;;;;;;;;;;4994288;28;20432;-67
2023/03/15 06:33:54;;;;;;;8.98;3.10;;;;;;;;;;4987054;28;20536;-69
2023/03/15 06:36:41;;;;;;;7.25;2.80;;;;;;;;;;4985578;28;20099;-68
2023/03/15 06:39:26;;;;;;;9.48;3.05;;;;;;;;;;4984670;28;20030;-69
2023/03/15 06:42:12;;;;;;;9.43;2.97;;;;;;;;;;4988593;28;20034;-69
2023/03/15 06:44:57;;;;;;;9.68;3.05;;;;;;;;;;4977523;28;20042;-72
2023/03/15 06:47:42;;;;;;;5.18;2.42;;;;;;;;;;4982003;28;20045;-72
2023/03/15 06:50:28;;;;;;;10.13;3.38;;;;;;;;;;4982099;28;20035;-70
2023/03/15 06:53:13;;;;;;;11.20;2.50;;;;;;;;;;4980721;28;20038;-70
2023/03/15 06:55:59;;;;;;;9.60;3.10;;;;;;;;;;4988081;28;20346;-74
2023/03/15 06:58:44;;;;;;;10.55;2.75;;;;;;;;;;4996553;28;20034;-74
2023/03/15 07:01:29;;;;;;;15.15;3.80;;;;;;;;;;4968791;28;20042;-77
2023/03/15 07:04:15;;;;;;;8.40;3.00;;;;;;;;;;4980141;28;20034;-79
2023/03/15 07:07:00;;;;;;;9.93;3.83;;;;;;;;;;4990629;28;20124;-78
2023/03/15 07:09:45;;;;;;;7.15;2.20;;;;;;;;;;4991332;28;20335;-78
2023/03/15 07:12:30;;;;;;;5.85;2.45;;;;;;;;;;4993299;28;20036;-78
2023/03/15 07:15:16;;;;;;;7.32;2.90;;;;;;;;;;4988482;28;20037;-77
2023/03/15 07:18:01;;;;;;;6.85;2.80;;;;;;;;;;4977546;28;20627;-68
2023/03/15 07:20:46;;;;;;;9.05;2.63;;;;;;;;;;4982918;28;20034;-65
2023/03/15 07:23:31;;;;;;;12.02;3.78;;;;;;;;;;4980261;28;20042;-65
2023/03/15 07:26:17;;;;;;;6.63;2.20;;;;;;;;;;4989524;28;20044;-66
2023/03/15 07:29:02;;;;;;;7.30;2.33;;;;;;;;;;4989238;28;20049;-66
2023/03/15 07:31:48;;;;;;;9.20;2.72;;;;;;;;;;4986921;28;20091;-65
2023/03/15 07:34:33;;;;;;;9.27;2.88;;;;;;;;;;4991723;28;20042;-65
2023/03/15 07:37:18;;;;;;;7.32;2.35;;;;;;;;;;4970374;28;20543;-74
2023/03/15 07:40:08;;;;;;;7.80;2.28;;;;;;;;;;4986562;28;20100;-74
2023/03/15 07:42:53;;;;;;;10.55;2.67;;;;;;;;;;4985660;28;20041;-73
2023/03/15 07:45:38;;;;;;;6.68;2.30;;;;;;;;;;4988296;28;20396;-73
2023/03/15 07:48:24;;;;;;;10.23;2.47;;;;;;;;;;4978055;28;20038;-73
2023/03/15 07:51:09;;;;;;;7.72;2.22;;;;;;;;;;4985834;28;20038;-72
2023/03/15 07:53:54;;;;;;;4.82;1.90;;;;;;;;;;4981728;28;20030;-70
2023/03/15 07:56:39;;;;;;;9.77;3.17;;;;;;;;;;4983065;28;20042;-66
2023/03/15 07:59:24;;;;;;;8.43;2.67;;;;;;;;;;4982803;28;20030;-66
2023/03/15 08:02:13;;;;;;;7.28;2.50;;;;;;;;;;4997019;28;20034;-66
2023/03/15 08:04:58;;;;;;;5.88;2.22;;;;;;;;;;5001762;28;20050;-68
2023/03/15 08:07:45;;;;;;;11.30;2.50;;;;;;;;;;4984574;28;20085;-67
2023/03/15 08:10:30;;;;;;;7.88;2.40;;;;;;;;;;4986123;28;20489;-68
2023/03/15 08:13:15;;;;;;;7.75;2.38;;;;;;;;;;4983002;28;20030;-68
2023/03/15 08:16:00;;;;;;;6.82;2.28;;;;;;;;;;4979048;28;20018;-75
2023/03/15 08:18:46;;;;;;;5.75;2.20;;;;;;;;;;4988798;28;20045;-77
2023/03/15 08:21:34;;;;;;;6.03;2.17;;;;;;;;;;4977214;28;20109;-75
2023/03/15 08:24:20;;;;;;;4.65;1.80;;;;;;;;;;4984747;28;20042;-78
2023/03/15 08:27:05;;;;;;;5.78;1.83;;;;;;;;;;4983359;28;20057;-76
2023/03/15 08:29:51;;;;;;;6.20;2.30;;;;;;;;;;4981747;28;20092;-69
2023/03/15 08:32:36;;;;;;;3.88;1.67;;;;;;;;;;4985944;28;20030;-66
2023/03/15 08:35:21;;;;;;;5.57;2.10;;;;;;;;;;4994482;28;20056;-68
2023/03/15 08:38:08;;;;;;;6.20;2.05;;;;;;;;;;4987202;28;20037;-69
2023/03/15 08:40:56;;;;;;;7.13;1.70;;;;;;;;;;4965274;28;20510;-69
2023/03/15 08:43:42;;;;;;;6.45;2.22;;;;;;;;;;4990305;28;20038;-69
2023/03/15 08:46:27;;;;;;;6.18;1.75;;;;;;;;;;4981856;28;20108;-68
2023/03/15 08:49:12;;;;;;;5.10;2.10;;;;;;;;;;4983204;28;20033;-68
2023/03/15 08:51:57;;;;;;;4.05;1.80;;;;;;;;;;4985040;28;20030;-73
2023/03/15 08:54:43;;;;;;;5.97;2.25;;;;;;;;;;4986942;28;20045;-72
2023/03/15 08:57:28;;;;;;;6.75;1.60;;;;;;;;;;4984197;28;20551;-72
2023/03/15 09:00:21;;;;;;;9.30;1.98;;;;;;;;;;4965557;28;20042;-77
2023/03/15 09:03:06;;;;;;;7.20;2.30;;;;;;;;;;4985810;28;20025;-71
2023/03/15 09:05:56;;;;;;;7.95;1.73;;;;;;;;;;4988728;28;20065;-73
2023/03/15 09:08:41;;;;;;;6.03;2.00;;;;;;;;;;4990119;28;20049;-68
2023/03/15 09:11:26;;;;;;;8.20;2.13;;;;;;;;;;4985993;28;20066;-73
2023/03/15 09:14:11;;;;;;;6.47;1.55;;;;;;;;;;4978979;28;20038;-70
2023/03/15 09:16:56;;;;;;;7.50;2.17;;;;;;;;;;4983429;28;20026;-69
2023/03/15 09:19:41;;;;;;;6.22;1.73;;;;;;;;;;4990945;28;20033;-69
2023/03/15 09:22:27;;;;;;;10.20;2.17;;;;;;;;;;4980816;28;20071;-70
2023/03/15 09:25:12;;;;;;;14.40;2.17;;;;;;;;;;4983041;28;20054;-73
2023/03/15 09:27:57;;;;;;;9.23;1.85;;;;;;;;;;4983335;28;20069;-74
2023/03/15 09:30:42;;;;;;;5.05;1.65;;;;;;;;;;4993368;28;20073;-78
2023/03/15 09:33:28;;;;;;;6.65;2.10;;;;;;;;;;4976149;28;20153;-73
2023/03/15 09:36:13;;;;;;;5.28;1.48;;;;;;;;;;4980658;28;20045;-74
2023/03/15 09:39:00;;;;;;;11.85;2.10;;;;;;;;;;4989813;28;20448;-75
2023/03/15 09:41:53;;;;;;;6.28;2.13;;;;;;;;;;4983441;28;20052;-76
2023/03/15 09:44:42;;;;;;;5.05;1.90;;;;;;;;;;4980677;28;20402;-68
2023/03/15 09:47:34;;;;;;;5.32;1.95;;;;;;;;;;4986649;28;20125;-63
2023/03/15 09:50:30;;;;;;;14.55;3.15;;;;;;;;;;4992567;28;20037;-65
2023/03/15 09:53:19;;;;;;;5.03;1.60;;;;;;;;;;4988605;28;20449;-64
2023/03/15 09:56:17;;;;;;;4.55;1.58;;;;;;;;;;4992107;28;20359;-67
2023/03/15 09:59:03;;;;;;;5.05;1.67;;;;;;;;;;4976497;28;20241;-68
2023/03/15 10:01:49;;;;;;;11.35;1.90;;;;;;;;;;4988144;28;20030;-68
2023/03/15 10:04:40;;;;;;;5.38;1.63;;;;;;;;;;4987816;28;20041;-66
2023/03/15 10:07:26;;;;;;;6.53;1.85;;;;;;;;;;4989674;28;20038;-69
2023/03/15 10:10:19;;;;;;;4.63;1.75;;;;;;;;;;4991926;28;20101;-68
2023/03/15 10:13:12;;;;;;;4.85;2.00;;;;;;;;;;4985974;28;20037;-69
2023/03/15 10:16:09;;;;;;;3.10;1.50;;;;;;;;;;4990514;28;20058;-68
2023/03/15 10:19:13;;;;;;;3.33;1.25;;;;;;;;;;4983673;28;20034;-68
2023/03/15 10:22:01;;;;;;;6.18;1.48;;;;;;;;;;4981063;28;20389;-69
2023/03/15 10:25:04;;;;;;;2.83;1.48;;;;;;;;;;4981057;28;20038;-65
2023/03/15 10:28:04;;;;;;;4.38;1.33;;;;;;;;;;4987389;28;20038;-66
2023/03/15 10:30:53;;;;;;;4.68;1.35;;;;;;;;;;4991569;28;20038;-67
2023/03/15 10:33:38;;;;;;;4.13;1.50;;;;;;;;;;4985790;28;20036;-65
2023/03/15 10:36:24;;;;;;;7.32;1.80;;;;;;;;;;4980043;28;20101;-66
2023/03/15 10:39:10;;;;;;;5.10;1.50;;;;;;;;;;4981971;28;20038;-75
2023/03/15 10:41:55;;;;;;;5.65;1.50;;;;;;;;;;4998592;28;20099;-65
2023/03/15 10:44:41;;;;;;;2.47;1.40;;;;;;;;;;4984263;28;20045;-65
2023/03/15 10:47:26;;;;;;;5.72;1.45;;;;;;;;;;4987398;28;20472;-64
2023/03/15 10:50:25;;;;;;;2.55;1.25;;;;;;;;;;4985162;28;20040;-64
2023/03/15 10:53:16;;;;;;;4.28;1.17;;;;;;;;;;4984495;28;20032;-67
2023/03/15 10:56:06;;;;;;;4.32;1.50;;;;;;;;;;4986719;28;20030;-63
2023/03/15 10:58:51;;;;;;;;;;;;;;;;;;4987906;28;20046;-67
2023/03/15 11:01:36;;;;;;;6.43;1.65;;;;;;;;;;4988932;28;19918;-68
2023/03/15 11:04:23;;;;;;;4.43;1.15;;;;;;;;;;4986468;28;20056;-68
2023/03/15 11:07:09;;;;;;;8.45;2.22;;;;;;;;;;4990680;28;20029;-68
2023/03/15 11:09:58;;;;;;;5.88;1.52;;;;;;;;;;4987375;28;20030;-69
2023/03/15 11:12:43;;;;;;;4.00;1.53;;;;;;;;;;4987350;28;20187;-68
2023/03/15 11:15:28;;;;;;;4.93;1.40;;;;;;;;;;4975357;28;20287;-76
2023/03/15 11:18:23;;;;;;;4.65;1.55;;;;;;;;;;4991130;28;20137;-66
2023/03/15 11:21:10;;;;;;;4.35;1.35;;;;;;;;;;4984512;28;20022;-65
2023/03/15 11:23:56;;;;;;;3.35;1.17;;;;;;;;;;5000528;28;20120;-68
2023/03/15 11:26:44;;;;;;;3.92;1.33;;;;;;;;;;4985670;28;20626;-65
2023/03/15 11:29:31;;;;;;;4.10;1.30;;;;;;;;;;4982363;28;20033;-66
2023/03/15 11:32:27;;;;;;;2.67;1.20;;;;;;;;;;4986636;28;20069;-66
2023/03/15 11:35:14;;;;;;;4.40;1.40;;;;;;;;;;4973583;28;20074;-67
2023/03/15 11:38:02;;;;;;;5.10;1.40;;;;;;;;;;4981171;28;20029;-67
2023/03/15 11:40:49;;;;;;;2.45;1.73;;;;;;;;;;4983945;28;20034;-66
2023/03/15 11:43:48;;;;;;;3.28;1.10;;;;;;;;;;4989006;28;20092;-66
2023/03/15 11:46:38;;;;;;;2.03;1.00;;;;;;;;;;4991180;28;20046;-69
2023/03/15 11:49:23;;;;;;;;;;;;;;;;;;4969821;28;20433;-68
2023/03/15 11:52:09;;;;;;;4.70;1.20;;;;;;;;;;4988717;28;19921;-76
2023/03/15 11:54:58;;;;;;;3.95;1.15;;;;;;;;;;4985399;28;20041;-76
2023/03/15 11:57:44;;;;;;;2.80;1.13;;;;;;;;;;4988439;28;20053;-66
2023/03/15 12:00:30;;;;;;;2.50;1.00;;;;;;;;;;4988944;28;20116;-67
2023/03/15 12:03:24;;;;;;;3.45;1.00;;;;;;;;;;4986252;28;20069;-69
2023/03/15 12:06:09;;;;;;;4.90;1.70;;;;;;;;;;4986645;28;20033;-67
2023/03/15 12:08:55;;;;;;;2.60;0.90;;;;;;;;;;4986983;28;20034;-68
2023/03/15 12:11:40;;;;;;;3.22;0.98;;;;;;;;;;4984068;28;20091;-69
2023/03/15 12:14:28;;;;;;;1.10;0.65;;;;;;;;;;4990279;28;20045;-67
2023/03/15 12:17:22;;;;;;;4.45;1.05;;;;;;;;;;4990171;28;20057;-68
2023/03/15 12:20:18;;;;;;;3.95;1.23;;;;;;;;;;4976627;28;20097;-69
2023/03/15 12:23:16;;;;;;;2.35;0.90;;;;;;;;;;4999982;28;20030;-66
2023/03/15 12:26:01;;;;;;;3.95;1.33;;;;;;;;;;4994323;28;20104;-67
2023/03/15 12:29:07;;;;;;;2.17;1.08;;;;;;;;;;4986865;28;20084;-67
2023/03/15 12:32:01;;;;;;;2.50;1.25;;;;;;;;;;5000414;28;20034;-67
2023/03/15 12:34:50;;;;;;;7.22;1.83;;;;;;;;;;4987516;28;20045;-71
2023/03/15 12:37:43;;;;;;;2.30;1.00;;;;;;;;;;4985447;28;20026;-71
2023/03/15 12:40:40;;;;;;;4.43;2.08;;;;;;;;;;4971113;28;20069;-70
2023/03/15 12:43:37;;;;;;;3.60;1.02;;;;;;;;;;4999346;28;20029;-70
2023/03/15 12:46:38;;;;;;;4.45;1.30;;;;;;;;;;4970970;28;20080;-74
2023/03/15 12:49:23;;;;;;;7.63;1.35;;;;;;;;;;4990314;28;20061;-71
2023/03/15 12:52:12;;;;;;;4.60;1.40;;;;;;;;;;5001099;28;20041;-71
2023/03/15 12:55:10;;;;;;;5.00;1.02;;;;;;;;;;4965706;28;20114;-71
2023/03/15 12:57:56;;;;;;;3.65;1.05;;;;;;;;;;4986428;28;20511;-73
2023/03/15 13:00:42;;;;;;;4.18;1.02;;;;;;;;;;4983919;28;20034;-72
2023/03/15 13:03:27;;;;;;;3.55;0.88;;;;;;;;;;4987239;28;20033;-74
2023/03/15 13:06:31;;;;;;;3.15;1.20;;;;;;;;;;4987911;28;20084;-78
2023/03/15 13:09:40;;;;;;;3.40;1.05;;;;;;;;;;4974829;28;20037;-76
2023/03/15 13:12:33;;;;;;;2.78;1.13;;;;;;;;;;4974408;28;20129;-78
2023/03/15 13:15:26;;;;;;;2.50;1.40;;;;;;;;;;4977454;28;20513;-76
2023/03/15 13:18:21;;;;;;;2.15;1.15;;;;;;;;;;4978253;28;20086;-75
2023/03/15 13:21:25;;;;;;;2.95;1.30;;;;;;;;;;4987822;28;20046;-79
2023/03/15 13:24:12;;;;;;;3.30;1.42;;;;;;;;;;4988766;28;20041;-74
2023/03/15 13:27:18;;;;;;;4.30;1.48;;;;;;;;;;5002448;28;20096;-67
2023/03/15 13:30:23;;;;;;;4.55;1.67;;;;;;;;;;4970438;28;20125;-70
2023/03/15 13:33:08;;;;;;;6.32;1.83;;;;;;;;;;4971672;28;20034;-67
2023/03/15 13:35:54;;;;;;;7.13;1.60;;;;;;;;;;4986411;28;20045;-68
2023/03/15 13:38:40;;;;;;;2.75;1.60;;;;;;;;;;4992894;28;20034;-68
2023/03/15 13:41:27;;;;;;;5.70;1.85;;;;;;;;;;4977443;28;20101;-67
2023/03/15 13:44:19;;;;;;;2.72;1.50;;;;;;;;;;4991653;28;20030;-68
2023/03/15 13:47:05;;;;;;;6.45;1.83;;;;;;;;;;4978364;28;20113;-68
2023/03/15 13:49:55;;;;;;;5.20;1.52;;;;;;;;;;4993030;28;20457;-67
2023/03/15 13:52:41;;;;;;;7.35;1.38;;;;;;;;;;4987287;28;20555;-67
2023/03/15 13:55:30;;;;;;;5.43;1.63;;;;;;;;;;4993371;28;20045;-66
2023/03/15 13:58:15;;;;;;;3.33;1.50;;;;;;;;;;4986264;28;20485;-68
2023/03/15 14:01:03;;;;;;;3.70;1.20;;;;;;;;;;4993817;28;20042;-66
2023/03/15 14:03:53;;;;;;;3.10;1.08;;;;;;;;;;4995254;28;20523;-67
2023/03/15 14:06:38;;;;;;;3.00;1.50;;;;;;;;;;4985712;28;20046;-67
2023/03/15 14:09:27;;;;;;;3.90;1.73;;;;;;;;;;4986911;28;20034;-66
2023/03/15 14:12:17;;;;;;;4.38;1.60;;;;;;;;;;4980153;28;20163;-66
2023/03/15 14:15:02;;;;;;;6.68;2.15;;;;;;;;;;4996569;28;20034;-67
2023/03/15 14:18:01;;;;;;;8.23;1.95;;;;;;;;;;4984709;28;20045;-66
2023/03/15 14:20:52;;;;;;;3.35;1.58;;;;;;;;;;4988531;28;20108;-65
2023/03/15 14:23:39;;;;;;;3.17;1.67;;;;;;;;;;4972695;28;20038;-73
2023/03/15 14:26:28;;;;;;;2.70;1.60;;;;;;;;;;4989806;28;20363;-73
2023/03/15 14:29:16;;;;;;;8.88;2.60;;;;;;;;;;4993217;28;20390;-72
2023/03/15 14:32:06;;;;;;;3.35;1.40;;;;;;;;;;4990232;28;20083;-70
2023/03/15 14:34:57;;;;;;;1.92;1.20;;;;;;;;;;4978678;28;20637;-71
2023/03/15 14:37:42;;;;;;;7.30;1.80;;;;;;;;;;4988587;28;20270;-77
2023/03/15 14:40:33;;;;;;;3.88;1.48;;;;;;;;;;4972531;28;20066;-75
2023/03/15 14:43:19;;;;;;;4.57;2.05;;;;;;;;;;4996275;28;20088;-74
2023/03/15 14:46:04;;;;;;;2.60;1.48;;;;;;;;;;4988953;28;20042;-78
2023/03/15 14:48:50;;;;;;;3.95;1.10;;;;;;;;;;4970671;28;20096;-77
2023/03/15 14:51:35;;;;;;;2.92;1.00;;;;;;;;;;4989089;28;20038;-76
2023/03/15 14:54:20;;;;;;;3.58;1.60;;;;;;;;;;4985792;28;20272;-77
2023/03/15 14:57:07;;;;;;;5.13;1.77;;;;;;;;;;4996124;28;20424;-67
2023/03/15 14:59:52;;;;;;;6.10;1.80;;;;;;;;;;4989697;28;20037;-76
2023/03/15 15:02:38;;;;;;;2.92;1.33;;;;;;;;;;4973494;28;20041;-77
2023/03/15 15:05:28;;;;;;;9.40;1.90;;;;;;;;;;4985330;28;20409;-75
2023/03/15 15:08:15;;;;;;;2.03;1.25;;;;;;;;;;4987620;28;20111;-76
2023/03/15 15:11:01;;;;;;;4.85;1.83;;;;;;;;;;4990079;28;20034;-76
2023/03/15 15:13:46;;;;;;;3.45;1.48;;;;;;;;;;4966190;28;20691;-75
2023/03/15 15:16:31;;;;;;;3.38;1.52;;;;;;;;;;4989216;28;20066;-67
2023/03/15 15:19:17;;;;;;;5.65;1.77;;;;;;;;;;4983471;28;20058;-68
2023/03/15 15:22:02;;;;;;;3.55;1.30;;;;;;;;;;4988660;28;20065;-68
2023/03/15 15:24:47;;;;;;;2.85;1.52;;;;;;;;;;4981965;28;20038;-67
2023/03/15 15:27:32;;;;;;;2.45;1.20;;;;;;;;;;4993533;28;20053;-68
2023/03/15 15:30:19;;;;;;;2.33;1.17;;;;;;;;;;4991442;28;20018;-69
2023/03/15 15:33:05;;;;;;;4.70;2.30;;;;;;;;;;4998532;28;20037;-66
2023/03/15 15:35:52;;;;;;;2.50;1.23;;;;;;;;;;4987652;28;20064;-74
2023/03/15 15:38:39;;;;;;;1.15;0.80;;;;;;;;;;4988973;28;20124;-75
2023/03/15 15:41:25;;;;;;;1.58;0.90;;;;;;;;;;4988360;28;20637;-73
2023/03/15 15:44:17;;;;;;;1.60;1.00;;;;;;;;;;4984453;28;20077;-76
2023/03/15 15:47:03;;;;;;;1.48;1.00;;;;;;;;;;4990781;28;20125;-74
2023/03/15 15:49:48;;;;;;;2.05;0.95;;;;;;;;;;4984699;28;20052;-73
2023/03/15 15:52:34;;;;;;;1.20;0.90;;;;;;;;;;4988205;28;20076;-78
2023/03/15 15:55:25;;;;;;;0.93;0.82;;;;;;;;;;4987060;28;20546;-73
2023/03/15 15:58:11;;;;;;;4.65;1.10;;;;;;;;;;4984576;28;20021;-71
2023/03/15 16:00:56;;;;;;;0.80;0.73;;;;;;;;;;4985236;28;20117;-71
2023/03/15 16:03:41;;;;;;;1.85;0.90;;;;;;;;;;4971399;28;20092;-71
2023/03/15 16:06:27;;;;;;;1.05;0.95;;;;;;;;;;4980729;28;20618;-71
2023/03/15 16:09:12;;;;;;;1.88;1.00;;;;;;;;;;4986726;28;20511;-71
2023/03/15 16:11:58;;;;;;;1.13;1.00;;;;;;;;;;4984210;28;20042;-67
2023/03/15 16:14:43;;;;;;;1.65;1.08;;;;;;;;;;4978482;28;20050;-66
2023/03/15 16:17:28;;;;;;;3.33;1.20;;;;;;;;;;4985036;28;20131;-65
2023/03/15 16:20:15;;;;;;;2.58;1.33;;;;;;;;;;4979588;28;20418;-69
2023/03/15 16:23:00;;;;;;;2.28;0.95;;;;;;;;;;4982574;28;20046;-67
2023/03/15 16:25:47;;;;;;;3.45;1.55;;;;;;;;;;4979363;28;20034;-67
2023/03/15 16:28:33;;;;;;;1.60;1.15;;;;;;;;;;4990220;28;20065;-66
2023/03/15 16:31:20;;;;;;;1.58;0.90;;;;;;;;;;4990940;28;20049;-71
2023/03/15 16:34:13;;;;;;;1.48;1.00;;;;;;;;;;4994278;28;20371;-66
2023/03/15 16:36:58;;;;;;;1.70;1.00;;;;;;;;;;4989602;28;20490;-68
2023/03/15 16:39:45;;;;;;;2.25;1.13;;;;;;;;;;4984755;28;20038;-66
2023/03/15 16:42:31;;;;;;;3.22;1.30;;;;;;;;;;4971893;28;20026;-69